createdAt,value
2017-05-20T08:23:00.805Z,19.21
2017-05-20T08:24:45.992Z,19.46
2017-05-20T08:27:09.235Z,19.77
2017-05-20T08:28:52.681Z,19.92
2017-05-20T08:30:36.124Z,20.18
2017-05-20T08:32:19.812Z,20.13
2017-05-20T08:34:03.252Z,20.05
2017-05-20T08:40:51.591Z,20.61
2017-05-20T08:41:39.238Z,20.64
2017-05-20T08:50:12.985Z,20.69
2017-05-20T08:52:39.854Z,20.55
2017-05-20T08:55:06.737Z,20.38
2017-05-20T08:56:53.860Z,20.32
2017-05-20T08:58:41.008Z,20.24
2017-05-20T09:00:28.134Z,20.23
2017-05-20T09:02:15.245Z,20.16
2017-05-20T09:04:42.108Z,20.17
2017-05-20T09:06:29.244Z,20.13
2017-05-20T09:08:35.085Z,20.21
2017-05-20T09:10:22.424Z,20.18
2017-05-20T09:12:09.547Z,20.21
2017-05-20T09:24:28.326Z,20.26
2017-05-20T09:26:15.498Z,20.33
2017-05-20T09:28:02.902Z,20.31
2017-05-20T09:30:48.203Z,20.33
2017-05-20T09:32:35.335Z,20.28
2017-05-20T09:34:23.427Z,20.42
2017-05-20T09:37:08.735Z,20.52
2017-05-20T09:38:55.997Z,20.50
2017-05-20T09:40:43.182Z,20.48
2017-05-20T09:42:30.297Z,20.57
2017-05-20T09:44:29.469Z,20.52
2017-05-20T09:46:36.476Z,20.57
2017-05-20T09:48:23.608Z,20.55
2017-05-20T09:50:10.758Z,20.59
2017-05-20T09:52:16.887Z,20.64
2017-05-20T09:54:04.016Z,20.54
2017-05-20T09:56:30.612Z,20.66
2017-05-20T09:58:17.769Z,20.66
2017-05-20T10:00:05.919Z,20.62
2017-05-20T10:01:53.058Z,20.64
2017-05-20T10:03:40.485Z,20.61
2017-05-20T10:05:27.704Z,20.77
2017-05-20T10:07:15.345Z,20.67
2017-05-20T10:09:21.421Z,20.76
2017-05-20T10:11:27.243Z,20.67
2017-05-20T10:13:14.368Z,20.74
2017-05-20T10:15:01.503Z,20.76
2017-05-20T10:16:48.639Z,20.77
2017-05-20T10:18:35.788Z,20.77
2017-05-20T10:21:03.913Z,20.77
2017-05-20T10:23:30.506Z,20.76
2017-05-20T10:25:17.626Z,20.76
2017-05-20T10:27:44.216Z,20.73
2017-05-20T10:29:31.340Z,20.76
2017-05-20T10:31:18.467Z,20.74
2017-05-20T10:33:45.097Z,20.77
2017-05-20T10:35:09.226Z,20.74
2017-05-20T10:36:56.354Z,20.80
2017-05-20T10:38:43.719Z,20.87
2017-05-20T10:40:30.832Z,20.84
2017-05-20T10:42:17.956Z,20.87
2017-05-20T10:44:05.947Z,20.94
2017-05-20T10:46:33.102Z,20.87
2017-05-20T10:48:38.970Z,20.87
2017-05-20T10:50:26.129Z,20.89
2017-05-20T10:52:14.007Z,20.91
2017-05-20T10:54:01.137Z,20.91
2017-05-20T10:55:25.543Z,20.92
2017-05-20T10:57:12.680Z,20.97
2017-05-20T10:59:39.782Z,20.89
2017-05-20T11:01:27.132Z,20.99
2017-05-20T11:03:14.253Z,21.04
2017-05-20T11:05:01.370Z,20.99
2017-05-20T11:06:48.517Z,20.92
2017-05-20T11:08:40.698Z,20.99
2017-05-20T11:10:27.857Z,20.95
2017-05-20T11:12:15.217Z,20.89
2017-05-20T11:14:02.356Z,20.92
2017-05-20T11:15:49.473Z,20.87
2017-05-20T11:24:01.005Z,20.97
2017-05-20T11:26:28.639Z,20.89
2017-05-20T11:27:51.947Z,20.89
2017-05-20T11:29:39.056Z,20.94
2017-05-20T11:31:26.176Z,20.98
2017-05-20T11:33:13.314Z,20.94
2017-05-20T11:35:00.440Z,21.07
2017-05-20T11:36:47.876Z,20.99
2017-05-20T11:38:35.003Z,21.13
2017-05-20T11:40:22.120Z,21.14
2017-05-20T11:42:09.487Z,21.12
2017-05-20T11:43:56.612Z,21.12
2017-05-20T11:45:43.741Z,21.17
2017-05-20T11:47:31.176Z,21.13
2017-05-20T11:49:18.314Z,21.19
2017-05-20T11:50:42.469Z,21.24
2017-05-20T11:52:29.584Z,21.25
2017-05-20T11:54:16.996Z,21.25
2017-05-20T11:56:04.114Z,21.37
2017-05-20T11:57:51.242Z,21.35
2017-05-20T11:59:38.608Z,21.37
2017-05-20T12:13:28.422Z,21.47
2017-05-20T12:15:15.548Z,21.44
2017-05-20T12:17:42.158Z,21.46
2017-05-20T12:20:08.781Z,21.46
2017-05-20T12:21:55.901Z,21.50
2017-05-20T12:23:43.320Z,21.50
2017-05-20T12:25:30.462Z,21.49
2017-05-20T12:27:17.581Z,21.50
2017-05-20T12:29:05.966Z,21.52
2017-05-20T12:30:53.084Z,21.52
2017-05-20T14:15:33.197Z,21.34
2017-05-20T14:18:00.169Z,21.38
2017-05-20T14:19:47.315Z,21.40
2017-05-20T14:21:34.522Z,21.34
2017-05-20T14:23:22.505Z,21.42
2017-05-20T14:25:09.628Z,21.47
2017-05-20T14:26:56.872Z,21.35
2017-05-20T14:28:44.224Z,21.44
2017-05-20T14:30:31.339Z,21.42
2017-05-20T14:32:18.468Z,21.52
2017-05-20T14:34:05.869Z,21.54
2017-05-20T14:35:53.187Z,21.54
2017-05-20T14:37:40.323Z,21.50
2017-05-20T14:39:27.694Z,21.54
2017-05-20T14:41:14.823Z,21.61
2017-05-20T14:43:02.181Z,21.59
2017-05-20T14:44:49.534Z,21.64
2017-05-20T14:46:36.669Z,21.68
2017-05-20T14:48:23.813Z,21.58
2017-05-20T14:50:11.174Z,21.67
2017-05-20T14:51:58.290Z,21.74
2017-05-20T14:53:45.408Z,21.69
2017-05-20T14:55:32.759Z,21.68
2017-05-20T14:57:19.884Z,21.65
2017-05-20T14:59:07.014Z,21.68
2017-05-20T15:00:54.380Z,21.74
2017-05-20T15:03:20.974Z,21.69
2017-05-20T15:05:08.130Z,21.77
2017-05-20T15:06:55.293Z,21.69
2017-05-20T15:08:42.412Z,21.80
2017-05-20T15:10:29.545Z,21.69
2017-05-20T15:12:16.927Z,21.74
2017-05-20T15:14:04.062Z,21.72
2017-05-20T15:39:03.497Z,21.50
2017-05-20T15:40:50.715Z,21.59
2017-05-20T15:42:37.834Z,21.50
2017-05-20T15:44:25.259Z,21.47
2017-05-20T15:46:13.766Z,21.50
2017-05-20T15:48:01.367Z,21.49
2017-05-20T15:49:48.915Z,21.46
2017-05-20T15:51:36.453Z,21.43
2017-05-20T15:53:23.763Z,21.49
2017-05-20T15:55:11.568Z,21.53
2017-05-20T15:56:58.781Z,21.47
2017-05-20T15:58:46.157Z,21.49
2017-05-20T16:00:33.554Z,21.52
2017-05-20T16:02:20.703Z,21.47
2017-05-20T16:04:07.842Z,21.54
2017-05-20T16:05:55.237Z,21.58
2017-05-20T16:07:42.361Z,21.56
2017-05-20T16:09:29.481Z,21.61
2017-05-20T16:11:16.630Z,21.65
2017-05-20T16:13:03.854Z,21.64
2017-05-20T16:14:51.065Z,21.67
2017-05-20T16:16:38.471Z,21.59
2017-05-20T16:18:25.674Z,21.67
2017-05-20T16:20:12.794Z,21.69
2017-05-20T16:22:00.208Z,21.68
2017-05-20T16:23:47.335Z,21.65
2017-05-20T16:25:35.265Z,21.71
2017-05-20T16:27:22.651Z,21.68
2017-05-20T16:29:09.775Z,21.68
2017-05-20T16:30:56.897Z,21.67
2017-05-20T16:32:44.247Z,21.65
2017-05-20T16:34:31.381Z,21.67
2017-05-20T16:36:37.218Z,21.68
2017-05-20T16:38:24.365Z,21.67
2017-05-20T16:40:11.487Z,21.72
2017-05-20T16:41:58.665Z,21.69
2017-05-20T16:43:46.156Z,21.75
2017-05-20T16:45:33.367Z,21.67
2017-05-20T16:47:20.499Z,21.72
2017-05-20T16:49:07.978Z,21.72
2017-05-20T16:50:55.110Z,21.65
2017-05-20T16:52:42.248Z,21.69
2017-05-20T16:54:29.631Z,21.71
2017-05-20T16:56:16.774Z,21.68
2017-05-20T16:58:03.921Z,21.67
2017-05-20T16:59:51.301Z,21.68
2017-05-20T17:01:38.420Z,21.67
2017-05-20T17:03:25.568Z,21.69
2017-05-20T17:04:50.695Z,21.64
2017-05-20T17:06:38.097Z,21.64
2017-05-20T17:08:25.221Z,21.69
2017-05-20T17:10:12.376Z,21.71
2017-05-20T17:11:59.757Z,21.71
2017-05-20T17:13:46.891Z,21.62
2017-05-20T17:15:52.756Z,21.68
2017-05-20T17:17:40.114Z,21.65
2017-05-20T17:19:27.234Z,21.67
2017-05-20T17:21:14.360Z,21.65
2017-05-20T17:23:01.510Z,21.61
2017-05-20T17:24:48.642Z,21.64
2017-05-20T17:26:35.771Z,21.64
2017-05-20T17:28:23.175Z,21.62
2017-05-20T17:30:10.291Z,21.64
2017-05-20T17:31:57.413Z,21.53
2017-05-20T17:33:44.803Z,21.59
2017-05-20T17:35:31.922Z,21.62
2017-05-20T17:37:38.254Z,21.64
2017-05-20T17:40:05.279Z,21.54
2017-05-20T17:41:52.406Z,21.59
2017-05-20T17:43:39.525Z,21.59
2017-05-20T17:46:06.546Z,21.59
2017-05-20T17:48:33.153Z,21.53
2017-05-20T17:50:20.279Z,21.54
2017-05-20T17:52:07.634Z,21.56
2017-05-20T17:54:34.268Z,21.56
2017-05-20T17:56:21.502Z,21.61
2017-05-20T17:58:08.648Z,21.58
2017-05-20T17:59:55.776Z,21.53
2017-05-20T18:01:42.897Z,21.54
2017-05-20T18:03:32.204Z,21.62
2017-05-20T18:05:19.596Z,21.58
2017-05-20T18:07:06.982Z,21.58
2017-05-20T18:08:54.538Z,21.58
2017-05-20T18:10:48.214Z,21.50
2017-05-20T18:12:35.601Z,21.58
2017-05-20T18:14:23.218Z,21.50
2017-05-20T18:15:47.507Z,21.50
2017-05-20T18:17:34.966Z,21.53
2017-05-20T18:19:22.249Z,21.54
2017-05-20T18:21:09.580Z,21.49
2017-05-20T18:22:56.890Z,21.53
2017-05-20T18:24:44.440Z,21.50
2017-05-20T18:26:08.579Z,21.49
2017-05-20T18:27:55.691Z,21.47
2017-05-20T18:29:43.005Z,21.46
2017-05-20T18:31:30.585Z,21.46
2017-05-20T18:32:55.846Z,21.49
2017-05-20T18:34:20.201Z,21.47
2017-05-20T18:36:07.559Z,21.43
2017-05-20T18:37:31.927Z,21.49
2017-05-20T18:39:19.282Z,21.32
2017-05-20T18:40:43.594Z,21.38
2017-05-20T18:42:31.099Z,21.46
2017-05-20T18:44:18.429Z,21.44
2017-05-20T18:46:05.801Z,21.38
2017-05-20T18:47:53.466Z,21.42
2017-05-20T18:49:17.600Z,21.38
2017-05-20T18:51:04.730Z,21.43
2017-05-20T18:52:51.892Z,21.35
2017-05-20T18:54:39.057Z,21.35
2017-05-20T18:56:26.398Z,21.37
2017-05-20T18:57:51.774Z,21.38
2017-05-20T18:59:39.583Z,21.32
2017-05-20T19:01:45.416Z,21.31
2017-05-20T19:03:32.547Z,21.42
2017-05-20T19:05:19.935Z,21.37
2017-05-20T19:07:25.765Z,21.37
2017-05-20T19:09:12.917Z,21.37
2017-05-20T19:10:37.302Z,21.37
2017-05-20T19:12:24.423Z,21.38
2017-05-20T19:14:11.540Z,21.38
2017-05-20T19:15:58.899Z,21.38
2017-05-20T19:17:49.076Z,21.38
2017-05-20T19:19:36.198Z,21.37
2017-05-20T19:21:23.395Z,21.37
2017-05-20T19:23:10.518Z,21.34
2017-05-20T19:24:57.634Z,21.38
2017-05-20T19:26:46.030Z,21.35
2017-05-20T19:28:33.148Z,21.32
2017-05-20T19:30:20.272Z,21.40
2017-05-20T19:32:07.675Z,21.31
2017-05-20T19:33:54.802Z,21.31
2017-05-20T19:35:42.121Z,21.31
2017-05-20T19:37:29.727Z,21.31
2017-05-20T19:38:54.088Z,21.32
2017-05-20T19:40:18.414Z,21.31
2017-05-20T19:42:05.760Z,21.34
2017-05-20T19:43:09.937Z,21.28
2017-05-20T19:44:14.087Z,21.38
2017-05-20T19:46:20.410Z,21.32
2017-05-20T19:48:07.761Z,21.28
2017-05-20T19:49:55.221Z,21.32
2017-05-20T19:51:42.990Z,21.35
2017-05-20T19:53:49.055Z,21.27
2017-05-20T19:55:36.373Z,21.32
2017-05-20T19:57:23.930Z,21.31
2017-05-20T19:58:28.107Z,21.21
2017-05-20T20:00:34.038Z,21.19
2017-05-20T20:02:21.166Z,21.19
2017-05-20T20:04:08.305Z,21.27
2017-05-20T20:05:55.425Z,21.31
2017-05-20T20:07:42.541Z,21.32
2017-05-20T20:09:30.062Z,21.22
2017-05-20T20:11:34.015Z,21.25
2017-05-20T20:12:58.125Z,21.29
2017-05-20T20:15:04.179Z,21.27
2017-05-20T20:16:51.305Z,21.35
2017-05-20T20:18:38.510Z,21.25
2017-05-20T20:20:25.928Z,21.22
2017-05-20T20:22:13.061Z,21.28
2017-05-20T20:24:00.216Z,21.24
2017-05-20T20:25:47.503Z,21.28
2017-05-20T20:27:53.482Z,21.21
2017-05-20T20:28:57.661Z,21.32
2017-05-20T20:31:04.057Z,21.19
2017-05-20T20:32:51.413Z,21.28
2017-05-20T20:33:55.579Z,21.32
2017-05-20T20:36:01.610Z,21.22
2017-05-20T20:37:26.231Z,21.22
2017-05-20T20:39:13.573Z,21.32
2017-05-20T20:41:00.990Z,21.22
2017-05-20T20:42:25.341Z,21.21
2017-05-20T20:44:12.715Z,21.22
2017-05-20T20:46:18.767Z,21.22
2017-05-20T20:47:43.081Z,21.17
2017-05-20T20:49:07.643Z,21.22
2017-05-20T20:51:13.807Z,21.12
2017-05-20T20:52:38.206Z,21.22
2017-05-20T20:54:44.550Z,21.16
2017-05-20T20:56:31.930Z,21.12
2017-05-20T20:58:19.282Z,21.21
2017-05-20T21:00:24.622Z,21.09
2017-05-20T21:01:48.986Z,21.14
2017-05-20T21:03:36.355Z,21.12
2017-05-20T21:05:00.679Z,21.13
2017-05-20T21:06:48.103Z,21.14
2017-05-20T21:08:54.145Z,21.16
2017-05-20T21:10:41.897Z,21.14
2017-05-20T21:12:47.900Z,21.12
2017-05-20T21:14:35.771Z,21.19
2017-05-20T21:16:42.076Z,21.21
2017-05-20T21:18:48.136Z,21.17
2017-05-20T21:20:35.616Z,21.14
2017-05-20T21:21:39.863Z,21.14
2017-05-20T21:23:45.837Z,21.17
2017-05-20T21:25:51.819Z,21.17
2017-05-20T21:27:58.176Z,21.17
2017-05-20T21:29:02.331Z,21.13
2017-05-20T21:31:08.438Z,21.12
2017-05-20T21:32:56.761Z,21.07
2017-05-20T21:34:44.337Z,21.12
2017-05-20T21:36:31.637Z,21.14
2017-05-20T21:38:37.739Z,21.01
2017-05-20T21:40:43.819Z,21.07
2017-05-20T21:42:08.094Z,21.14
2017-05-20T21:43:55.243Z,21.14
2017-05-20T21:45:42.928Z,21.13
2017-05-20T21:46:47.196Z,21.06
2017-05-20T21:48:53.244Z,21.13
2017-05-20T21:50:17.638Z,21.07
2017-05-20T21:52:23.737Z,21.04
2017-05-20T21:54:10.986Z,21.04
2017-05-20T21:55:58.349Z,21.03
2017-05-20T21:57:02.362Z,21.10
2017-05-20T21:58:06.354Z,20.99
2017-05-20T22:00:12.214Z,20.95
2017-05-20T22:01:59.350Z,21.09
2017-05-20T22:03:46.529Z,20.95
2017-05-20T22:05:33.902Z,21.16
2017-05-20T22:07:21.050Z,20.95
2017-05-20T22:09:08.255Z,20.95
2017-05-20T22:10:55.640Z,21.01
2017-05-20T22:12:19.762Z,21.10
2017-05-20T22:14:06.948Z,21.01
2017-05-20T22:15:54.128Z,21.13
2017-05-20T22:17:41.293Z,21.10
2017-05-20T22:19:28.442Z,20.99
2017-05-20T22:21:28.112Z,20.98
2017-05-20T22:23:15.492Z,21.13
2017-05-20T22:25:02.621Z,21.01
2017-05-20T22:26:49.734Z,21.07
2017-05-20T22:28:37.122Z,21.06
2017-05-20T22:30:24.256Z,21.12
2017-05-20T22:32:11.412Z,20.99
2017-05-20T22:33:58.818Z,21.09
2017-05-20T22:35:46.089Z,21.04
2017-05-20T22:37:33.212Z,21.04
2017-05-20T22:39:21.903Z,21.03
2017-05-20T22:41:09.027Z,21.09
2017-05-20T22:42:56.168Z,21.04
2017-05-20T22:44:43.579Z,21.01
2017-05-20T22:46:49.454Z,21.06
2017-05-20T22:48:36.573Z,20.99
2017-05-20T22:50:23.952Z,21.03
2017-05-20T22:52:11.086Z,20.99
2017-05-20T22:53:58.249Z,20.98
2017-05-20T22:56:04.401Z,20.98
2017-05-20T22:57:51.547Z,20.98
2017-05-20T22:59:38.692Z,21.03
2017-05-20T23:01:26.076Z,20.97
2017-05-20T23:03:31.915Z,20.98
2017-05-20T23:05:19.049Z,20.97
2017-05-20T23:07:25.129Z,20.97
2017-05-20T23:09:12.242Z,20.97
2017-05-20T23:11:18.078Z,20.94
2017-05-20T23:13:24.131Z,20.95
2017-05-20T23:15:11.260Z,20.98
2017-05-20T23:16:58.402Z,20.98
2017-05-20T23:18:45.758Z,21.03
2017-05-20T23:20:32.886Z,20.88
2017-05-20T23:22:39.823Z,21.03
2017-05-20T23:24:45.883Z,20.85
2017-05-20T23:26:33.029Z,20.94
2017-05-20T23:28:38.864Z,20.91
2017-05-20T23:30:26.243Z,20.91
2017-05-20T23:32:13.368Z,20.95
2017-05-20T23:34:01.060Z,20.91
2017-05-20T23:35:48.491Z,20.92
2017-05-20T23:37:54.328Z,20.94
2017-05-20T23:40:00.164Z,20.88
2017-05-20T23:41:47.413Z,20.85
2017-05-20T23:43:35.085Z,20.87
2017-05-20T23:45:22.218Z,20.94
2017-05-20T23:47:09.579Z,20.92
2017-05-20T23:48:56.708Z,20.88
2017-05-20T23:50:43.932Z,20.85
2017-05-20T23:52:31.306Z,20.89
2017-05-20T23:54:18.431Z,20.82
2017-05-20T23:56:06.569Z,20.77
2017-05-20T23:57:53.944Z,20.73
2017-05-20T23:59:41.108Z,20.79
